sensor_id;sensor_type;location;lat;lon;timestamp;temperature;humidity
67354;SHT30;54238;52.278;21.056;2023-05-07T00:00:03;7.70;77.61
67354;SHT30;54238;52.278;21.056;2023-05-07T00:02:58;7.69;77.71
67354;SHT30;54238;52.278;21.056;2023-05-07T00:05:27;7.67;77.80
67354;SHT30;54238;52.278;21.056;2023-05-07T00:11:12;7.63;77.66
67354;SHT30;54238;52.278;21.056;2023-05-07T00:13:42;7.65;77.74
67354;SHT30;54238;52.278;21.056;2023-05-07T00:16:09;7.68;77.74
67354;SHT30;54238;52.278;21.056;2023-05-07T00:18:36;7.68;77.71
67354;SHT30;54238;52.278;21.056;2023-05-07T00:21:06;7.63;77.60
67354;SHT30;54238;52.278;21.056;2023-05-07T00:23:35;7.63;77.64
67354;SHT30;54238;52.278;21.056;2023-05-07T00:26:04;7.61;77.58
67354;SHT30;54238;52.278;21.056;2023-05-07T00:28:43;7.61;77.57
67354;SHT30;54238;52.278;21.056;2023-05-07T00:31:10;7.59;77.68
67354;SHT30;54238;52.278;21.056;2023-05-07T00:33:44;7.58;77.66
67354;SHT30;54238;52.278;21.056;2023-05-07T00:36:13;7.58;77.67
67354;SHT30;54238;52.278;21.056;2023-05-07T00:38:43;7.55;77.66
67354;SHT30;54238;52.278;21.056;2023-05-07T00:41:19;7.52;77.78
67354;SHT30;54238;52.278;21.056;2023-05-07T00:46:56;7.51;77.89
67354;SHT30;54238;52.278;21.056;2023-05-07T00:49:29;7.51;78.07
67354;SHT30;54238;52.278;21.056;2023-05-07T00:52:08;7.51;77.99
67354;SHT30;54238;52.278;21.056;2023-05-07T00:54:41;7.49;78.15
67354;SHT30;54238;52.278;21.056;2023-05-07T00:57:13;7.49;78.11
67354;SHT30;54238;52.278;21.056;2023-05-07T00:59:44;7.49;78.13
67354;SHT30;54238;52.278;21.056;2023-05-07T01:02:11;7.49;78.23
67354;SHT30;54238;52.278;21.056;2023-05-07T01:07:10;7.48;78.22
67354;SHT30;54238;52.278;21.056;2023-05-07T01:09:40;7.48;78.22
67354;SHT30;54238;52.278;21.056;2023-05-07T01:12:43;7.47;78.10
67354;SHT30;54238;52.278;21.056;2023-05-07T01:15:19;7.48;78.11
67354;SHT30;54238;52.278;21.056;2023-05-07T01:17:49;7.46;78.10
67354;SHT30;54238;52.278;21.056;2023-05-07T01:20:17;7.41;78.00
67354;SHT30;54238;52.278;21.056;2023-05-07T01:22:48;7.39;78.16
67354;SHT30;54238;52.278;21.056;2023-05-07T01:25:18;7.40;78.20
67354;SHT30;54238;52.278;21.056;2023-05-07T01:27:53;7.39;78.34
67354;SHT30;54238;52.278;21.056;2023-05-07T01:30:25;7.37;78.47
67354;SHT30;54238;52.278;21.056;2023-05-07T01:33:02;7.35;78.60
67354;SHT30;54238;52.278;21.056;2023-05-07T01:38:32;7.27;78.72
67354;SHT30;54238;52.278;21.056;2023-05-07T01:41:01;7.28;78.82
67354;SHT30;54238;52.278;21.056;2023-05-07T01:43:35;7.26;78.80
67354;SHT30;54238;52.278;21.056;2023-05-07T01:46:08;7.24;78.83
67354;SHT30;54238;52.278;21.056;2023-05-07T01:48:38;7.23;78.82
67354;SHT30;54238;52.278;21.056;2023-05-07T01:54:04;7.18;78.93
67354;SHT30;54238;52.278;21.056;2023-05-07T01:56:38;7.17;79.06
67354;SHT30;54238;52.278;21.056;2023-05-07T01:59:08;7.18;79.17
67354;SHT30;54238;52.278;21.056;2023-05-07T02:01:35;7.20;79.34
67354;SHT30;54238;52.278;21.056;2023-05-07T02:04:08;7.19;79.22
67354;SHT30;54238;52.278;21.056;2023-05-07T02:06:37;7.18;79.17
67354;SHT30;54238;52.278;21.056;2023-05-07T02:09:06;7.16;79.08
67354;SHT30;54238;52.278;21.056;2023-05-07T02:11:38;7.13;79.06
67354;SHT30;54238;52.278;21.056;2023-05-07T02:14:07;7.07;79.10
67354;SHT30;54238;52.278;21.056;2023-05-07T02:16:36;7.05;79.16
67354;SHT30;54238;52.278;21.056;2023-05-07T02:19:03;7.03;79.30
67354;SHT30;54238;52.278;21.056;2023-05-07T02:21:33;7.01;79.29
67354;SHT30;54238;52.278;21.056;2023-05-07T02:24:02;7.00;79.38
67354;SHT30;54238;52.278;21.056;2023-05-07T02:26:29;7.01;79.49
67354;SHT30;54238;52.278;21.056;2023-05-07T02:29:01;6.97;79.41
67354;SHT30;54238;52.278;21.056;2023-05-07T02:31:28;6.95;79.54
67354;SHT30;54238;52.278;21.056;2023-05-07T02:33:55;6.94;79.69
67354;SHT30;54238;52.278;21.056;2023-05-07T02:36:24;6.95;79.71
67354;SHT30;54238;52.278;21.056;2023-05-07T02:38:54;6.96;79.66
67354;SHT30;54238;52.278;21.056;2023-05-07T02:41:23;6.96;79.70
67354;SHT30;54238;52.278;21.056;2023-05-07T02:43:51;6.97;79.72
67354;SHT30;54238;52.278;21.056;2023-05-07T02:46:20;6.96;79.79
67354;SHT30;54238;52.278;21.056;2023-05-07T02:48:50;6.95;79.80
67354;SHT30;54238;52.278;21.056;2023-05-07T02:51:20;6.96;79.89
67354;SHT30;54238;52.278;21.056;2023-05-07T02:53:48;7.01;79.94
67354;SHT30;54238;52.278;21.056;2023-05-07T02:56:26;7.01;79.79
67354;SHT30;54238;52.278;21.056;2023-05-07T02:59:00;7.03;79.69
67354;SHT30;54238;52.278;21.056;2023-05-07T03:01:30;7.04;79.64
67354;SHT30;54238;52.278;21.056;2023-05-07T03:03:57;7.04;79.62
67354;SHT30;54238;52.278;21.056;2023-05-07T03:06:26;7.04;79.55
67354;SHT30;54238;52.278;21.056;2023-05-07T03:08:55;7.04;79.63
67354;SHT30;54238;52.278;21.056;2023-05-07T03:11:24;7.03;79.53
67354;SHT30;54238;52.278;21.056;2023-05-07T03:13:54;7.01;79.46
67354;SHT30;54238;52.278;21.056;2023-05-07T03:16:26;7.01;79.49
67354;SHT30;54238;52.278;21.056;2023-05-07T03:18:53;7.00;79.40
67354;SHT30;54238;52.278;21.056;2023-05-07T03:21:56;6.95;79.53
67354;SHT30;54238;52.278;21.056;2023-05-07T03:24:26;6.97;79.68
67354;SHT30;54238;52.278;21.056;2023-05-07T03:26:56;6.97;79.72
67354;SHT30;54238;52.278;21.056;2023-05-07T03:29:28;6.99;79.74
67354;SHT30;54238;52.278;21.056;2023-05-07T03:31:57;7.01;79.71
67354;SHT30;54238;52.278;21.056;2023-05-07T03:34:31;7.03;79.59
67354;SHT30;54238;52.278;21.056;2023-05-07T03:36:58;7.01;79.58
67354;SHT30;54238;52.278;21.056;2023-05-07T03:39:25;7.00;79.59
67354;SHT30;54238;52.278;21.056;2023-05-07T03:41:53;7.01;79.72
67354;SHT30;54238;52.278;21.056;2023-05-07T03:44:25;6.99;79.76
67354;SHT30;54238;52.278;21.056;2023-05-07T03:46:59;7.01;79.87
67354;SHT30;54238;52.278;21.056;2023-05-07T03:49:29;7.03;79.72
67354;SHT30;54238;52.278;21.056;2023-05-07T03:51:59;7.03;79.70
67354;SHT30;54238;52.278;21.056;2023-05-07T03:54:28;7.04;79.69
67354;SHT30;54238;52.278;21.056;2023-05-07T03:56:55;7.04;79.79
67354;SHT30;54238;52.278;21.056;2023-05-07T03:59:24;7.06;79.78
67354;SHT30;54238;52.278;21.056;2023-05-07T04:01:58;7.09;79.74
67354;SHT30;54238;52.278;21.056;2023-05-07T04:04:25;7.10;79.66
67354;SHT30;54238;52.278;21.056;2023-05-07T04:06:56;7.07;79.61
67354;SHT30;54238;52.278;21.056;2023-05-07T04:09:26;7.08;79.71
67354;SHT30;54238;52.278;21.056;2023-05-07T04:11:55;7.07;79.90
67354;SHT30;54238;52.278;21.056;2023-05-07T04:14:27;7.09;79.81
67354;SHT30;54238;52.278;21.056;2023-05-07T04:17:02;7.13;79.80
67354;SHT30;54238;52.278;21.056;2023-05-07T04:19:29;7.13;79.79
67354;SHT30;54238;52.278;21.056;2023-05-07T04:22:02;7.13;79.83
67354;SHT30;54238;52.278;21.056;2023-05-07T04:24:32;7.14;79.84
67354;SHT30;54238;52.278;21.056;2023-05-07T04:27:04;7.16;79.72
67354;SHT30;54238;52.278;21.056;2023-05-07T04:29:37;7.17;79.91
67354;SHT30;54238;52.278;21.056;2023-05-07T04:32:09;7.20;79.90
67354;SHT30;54238;52.278;21.056;2023-05-07T04:34:36;7.22;79.83
67354;SHT30;54238;52.278;21.056;2023-05-07T04:40:01;7.26;79.72
67354;SHT30;54238;52.278;21.056;2023-05-07T04:42:32;7.30;79.69
67354;SHT30;54238;52.278;21.056;2023-05-07T04:45:02;7.34;79.66
67354;SHT30;54238;52.278;21.056;2023-05-07T04:47:34;7.35;79.47
67354;SHT30;54238;52.278;21.056;2023-05-07T04:50:03;7.36;79.52
67354;SHT30;54238;52.278;21.056;2023-05-07T04:52:35;7.38;79.59
67354;SHT30;54238;52.278;21.056;2023-05-07T04:55:07;7.42;79.49
67354;SHT30;54238;52.278;21.056;2023-05-07T04:57:45;7.41;79.28
67354;SHT30;54238;52.278;21.056;2023-05-07T05:00:13;7.43;79.42
67354;SHT30;54238;52.278;21.056;2023-05-07T05:02:48;7.49;79.46
67354;SHT30;54238;52.278;21.056;2023-05-07T05:05:18;7.55;79.36
67354;SHT30;54238;52.278;21.056;2023-05-07T05:07:50;7.61;79.21
67354;SHT30;54238;52.278;21.056;2023-05-07T05:10:19;7.68;79.18
67354;SHT30;54238;52.278;21.056;2023-05-07T05:12:47;7.77;79.18
67354;SHT30;54238;52.278;21.056;2023-05-07T05:15:21;7.85;79.02
67354;SHT30;54238;52.278;21.056;2023-05-07T05:17:51;7.91;78.73
67354;SHT30;54238;52.278;21.056;2023-05-07T05:20:20;7.99;78.62
67354;SHT30;54238;52.278;21.056;2023-05-07T05:22:52;8.05;78.59
67354;SHT30;54238;52.278;21.056;2023-05-07T05:25:24;8.10;78.14
67354;SHT30;54238;52.278;21.056;2023-05-07T05:27:55;8.16;78.08
67354;SHT30;54238;52.278;21.056;2023-05-07T05:30:29;8.26;78.01
67354;SHT30;54238;52.278;21.056;2023-05-07T05:32:58;8.33;77.54
67354;SHT30;54238;52.278;21.056;2023-05-07T05:35:29;8.39;77.41
67354;SHT30;54238;52.278;21.056;2023-05-07T05:37:57;8.39;76.82
67354;SHT30;54238;52.278;21.056;2023-05-07T05:40:26;8.41;76.71
67354;SHT30;54238;52.278;21.056;2023-05-07T05:42:56;8.41;76.42
67354;SHT30;54238;52.278;21.056;2023-05-07T05:45:28;8.46;76.30
67354;SHT30;54238;52.278;21.056;2023-05-07T05:48:00;8.52;76.20
67354;SHT30;54238;52.278;21.056;2023-05-07T05:50:32;8.55;75.69
67354;SHT30;54238;52.278;21.056;2023-05-07T05:52:59;8.60;75.91
67354;SHT30;54238;52.278;21.056;2023-05-07T05:55:28;8.69;76.14
67354;SHT30;54238;52.278;21.056;2023-05-07T05:57:59;8.80;75.66
67354;SHT30;54238;52.278;21.056;2023-05-07T06:00:29;8.81;75.20
67354;SHT30;54238;52.278;21.056;2023-05-07T06:02:57;8.78;75.14
67354;SHT30;54238;52.278;21.056;2023-05-07T06:05:27;8.79;75.13
67354;SHT30;54238;52.278;21.056;2023-05-07T06:07:59;8.79;74.84
67354;SHT30;54238;52.278;21.056;2023-05-07T06:10:26;8.77;74.65
67354;SHT30;54238;52.278;21.056;2023-05-07T06:12:59;8.78;74.93
67354;SHT30;54238;52.278;21.056;2023-05-07T06:15:31;8.84;74.80
67354;SHT30;54238;52.278;21.056;2023-05-07T06:18:00;8.87;74.22
67354;SHT30;54238;52.278;21.056;2023-05-07T06:20:30;8.90;74.15
67354;SHT30;54238;52.278;21.056;2023-05-07T06:22:59;8.94;74.29
67354;SHT30;54238;52.278;21.056;2023-05-07T06:25:31;8.98;74.18
67354;SHT30;54238;52.278;21.056;2023-05-07T06:28:01;8.95;73.75
67354;SHT30;54238;52.278;21.056;2023-05-07T06:30:28;8.98;73.80
67354;SHT30;54238;52.278;21.056;2023-05-07T06:33:01;9.02;74.07
67354;SHT30;54238;52.278;21.056;2023-05-07T06:35:30;9.07;74.29
67354;SHT30;54238;52.278;21.056;2023-05-07T06:38:05;9.10;74.13
67354;SHT30;54238;52.278;21.056;2023-05-07T06:40:37;9.12;73.85
67354;SHT30;54238;52.278;21.056;2023-05-07T06:43:04;9.14;73.61
67354;SHT30;54238;52.278;21.056;2023-05-07T06:45:31;9.18;73.40
67354;SHT30;54238;52.278;21.056;2023-05-07T06:48:01;9.20;73.35
67354;SHT30;54238;52.278;21.056;2023-05-07T06:50:31;9.25;73.47
67354;SHT30;54238;52.278;21.056;2023-05-07T06:52:58;9.33;73.02
67354;SHT30;54238;52.278;21.056;2023-05-07T06:55:25;9.35;73.16
67354;SHT30;54238;52.278;21.056;2023-05-07T06:57:57;9.43;73.01
67354;SHT30;54238;52.278;21.056;2023-05-07T07:00:29;9.51;72.32
67354;SHT30;54238;52.278;21.056;2023-05-07T07:02:59;9.57;71.90
67354;SHT30;54238;52.278;21.056;2023-05-07T07:05:30;9.60;71.86
67354;SHT30;54238;52.278;21.056;2023-05-07T07:08:02;9.66;71.54
67354;SHT30;54238;52.278;21.056;2023-05-07T07:10:31;9.78;71.19
67354;SHT30;54238;52.278;21.056;2023-05-07T07:13:01;9.81;70.58
67354;SHT30;54238;52.278;21.056;2023-05-07T07:15:31;9.85;71.01
67354;SHT30;54238;52.278;21.056;2023-05-07T07:18:01;9.97;70.78
67354;SHT30;54238;52.278;21.056;2023-05-07T07:20:30;10.04;70.59
67354;SHT30;54238;52.278;21.056;2023-05-07T07:23:00;10.15;70.48
67354;SHT30;54238;52.278;21.056;2023-05-07T07:25:27;10.25;69.79
67354;SHT30;54238;52.278;21.056;2023-05-07T07:27:59;10.40;69.68
67354;SHT30;54238;52.278;21.056;2023-05-07T07:30:29;10.52;69.15
67354;SHT30;54238;52.278;21.056;2023-05-07T07:32:59;10.55;68.24
67354;SHT30;54238;52.278;21.056;2023-05-07T07:35:29;10.56;68.19
67354;SHT30;54238;52.278;21.056;2023-05-07T07:38:01;10.63;67.99
67354;SHT30;54238;52.278;21.056;2023-05-07T07:40:39;10.64;67.83
67354;SHT30;54238;52.278;21.056;2023-05-07T07:43:10;10.71;67.96
67354;SHT30;54238;52.278;21.056;2023-05-07T07:45:38;10.74;66.88
67354;SHT30;54238;52.278;21.056;2023-05-07T07:48:05;10.71;66.46
67354;SHT30;54238;52.278;21.056;2023-05-07T07:50:34;10.74;66.34
67354;SHT30;54238;52.278;21.056;2023-05-07T07:53:07;10.76;65.92
67354;SHT30;54238;52.278;21.056;2023-05-07T07:55:40;10.77;66.11
67354;SHT30;54238;52.278;21.056;2023-05-07T07:58:11;10.77;65.50
67354;SHT30;54238;52.278;21.056;2023-05-07T08:00:57;10.76;66.13
67354;SHT30;54238;52.278;21.056;2023-05-07T08:03:26;10.80;65.77
67354;SHT30;54238;52.278;21.056;2023-05-07T08:05:57;10.84;65.68
67354;SHT30;54238;52.278;21.056;2023-05-07T08:08:28;10.85;65.53
67354;SHT30;54238;52.278;21.056;2023-05-07T08:10:57;10.93;65.49
67354;SHT30;54238;52.278;21.056;2023-05-07T08:13:25;11.13;66.03
67354;SHT30;54238;52.278;21.056;2023-05-07T08:15:54;11.36;65.04
67354;SHT30;54238;52.278;21.056;2023-05-07T08:18:21;11.51;64.18
67354;SHT30;54238;52.278;21.056;2023-05-07T08:20:51;11.60;63.44
67354;SHT30;54238;52.278;21.056;2023-05-07T08:23:21;11.68;63.03
67354;SHT30;54238;52.278;21.056;2023-05-07T08:25:51;11.73;62.51
67354;SHT30;54238;52.278;21.056;2023-05-07T08:28:21;11.97;62.91
67354;SHT30;54238;52.278;21.056;2023-05-07T08:30:53;12.14;62.01
67354;SHT30;54238;52.278;21.056;2023-05-07T08:33:20;12.27;61.15
67354;SHT30;54238;52.278;21.056;2023-05-07T08:35:50;12.35;60.95
67354;SHT30;54238;52.278;21.056;2023-05-07T08:38:22;12.31;59.95
67354;SHT30;54238;52.278;21.056;2023-05-07T08:40:51;12.21;60.18
67354;SHT30;54238;52.278;21.056;2023-05-07T08:43:21;12.25;60.52
67354;SHT30;54238;52.278;21.056;2023-05-07T08:46:48;12.40;59.95
67354;SHT30;54238;52.278;21.056;2023-05-07T08:49:21;12.52;59.10
67354;SHT30;54238;52.278;21.056;2023-05-07T08:51:50;12.71;58.71
67354;SHT30;54238;52.278;21.056;2023-05-07T08:54:18;13.02;58.68
67354;SHT30;54238;52.278;21.056;2023-05-07T08:57:08;13.22;57.24
67354;SHT30;54238;52.278;21.056;2023-05-07T08:59:37;13.23;57.27
67354;SHT30;54238;52.278;21.056;2023-05-07T09:02:09;13.20;57.13
67354;SHT30;54238;52.278;21.056;2023-05-07T09:05:03;13.16;57.24
67354;SHT30;54238;52.278;21.056;2023-05-07T09:07:34;13.14;56.58
67354;SHT30;54238;52.278;21.056;2023-05-07T09:10:09;13.10;55.48
67354;SHT30;54238;52.278;21.056;2023-05-07T09:12:59;12.98;54.91
67354;SHT30;54238;52.278;21.056;2023-05-07T09:15:28;12.95;55.32
67354;SHT30;54238;52.278;21.056;2023-05-07T09:18:05;13.13;55.14
67354;SHT30;54238;52.278;21.056;2023-05-07T09:20:36;13.54;54.95
67354;SHT30;54238;52.278;21.056;2023-05-07T09:23:05;13.98;53.52
67354;SHT30;54238;52.278;21.056;2023-05-07T09:25:36;14.18;52.74
67354;SHT30;54238;52.278;21.056;2023-05-07T09:28:04;14.33;51.91
67354;SHT30;54238;52.278;21.056;2023-05-07T09:30:39;14.29;51.91
67354;SHT30;54238;52.278;21.056;2023-05-07T09:33:09;14.16;51.89
67354;SHT30;54238;52.278;21.056;2023-05-07T09:35:38;14.03;51.50
67354;SHT30;54238;52.278;21.056;2023-05-07T09:38:11;13.99;52.50
67354;SHT30;54238;52.278;21.056;2023-05-07T09:40:48;14.14;52.45
67354;SHT30;54238;52.278;21.056;2023-05-07T09:43:36;14.41;51.89
67354;SHT30;54238;52.278;21.056;2023-05-07T09:46:12;14.66;51.73
67354;SHT30;54238;52.278;21.056;2023-05-07T09:48:44;14.79;49.73
67354;SHT30;54238;52.278;21.056;2023-05-07T09:51:48;14.72;48.15
67354;SHT30;54238;52.278;21.056;2023-05-07T09:54:17;14.52;46.62
67354;SHT30;54238;52.278;21.056;2023-05-07T09:56:48;14.44;47.05
67354;SHT30;54238;52.278;21.056;2023-05-07T09:59:18;14.52;47.05
67354;SHT30;54238;52.278;21.056;2023-05-07T10:01:49;14.85;47.23
67354;SHT30;54238;52.278;21.056;2023-05-07T10:04:26;15.18;46.81
67354;SHT30;54238;52.278;21.056;2023-05-07T10:06:56;15.44;45.94
67354;SHT30;54238;52.278;21.056;2023-05-07T10:12:25;15.55;44.18
67354;SHT30;54238;52.278;21.056;2023-05-07T10:14:56;15.60;44.47
67354;SHT30;54238;52.278;21.056;2023-05-07T10:17:23;15.98;44.30
67354;SHT30;54238;52.278;21.056;2023-05-07T10:19:53;16.44;43.25
67354;SHT30;54238;52.278;21.056;2023-05-07T10:22:24;16.49;41.77
67354;SHT30;54238;52.278;21.056;2023-05-07T10:24:54;16.44;42.56
67354;SHT30;54238;52.278;21.056;2023-05-07T10:27:28;16.58;43.14
67354;SHT30;54238;52.278;21.056;2023-05-07T10:32:53;16.70;43.26
67354;SHT30;54238;52.278;21.056;2023-05-07T10:35:36;16.50;43.04
67354;SHT30;54238;52.278;21.056;2023-05-07T10:38:11;16.17;43.33
67354;SHT30;54238;52.278;21.056;2023-05-07T10:40:39;15.86;43.99
67354;SHT30;54238;52.278;21.056;2023-05-07T10:43:14;15.52;43.98
67354;SHT30;54238;52.278;21.056;2023-05-07T10:45:44;15.23;45.05
67354;SHT30;54238;52.278;21.056;2023-05-07T10:51:30;14.96;44.96
67354;SHT30;54238;52.278;21.056;2023-05-07T10:56:39;15.09;44.82
67354;SHT30;54238;52.278;21.056;2023-05-07T11:04:33;15.25;44.53
67354;SHT30;54238;52.278;21.056;2023-05-07T11:15:08;14.85;45.66
67354;SHT30;54238;52.278;21.056;2023-05-07T11:17:53;14.84;45.31
67354;SHT30;54238;52.278;21.056;2023-05-07T11:26:10;15.93;45.17
67354;SHT30;54238;52.278;21.056;2023-05-07T11:28:43;16.67;43.74
67354;SHT30;54238;52.278;21.056;2023-05-07T11:31:10;16.97;42.43
67354;SHT30;54238;52.278;21.056;2023-05-07T11:33:43;16.96;41.85
67354;SHT30;54238;52.278;21.056;2023-05-07T11:36:15;16.73;41.15
67354;SHT30;54238;52.278;21.056;2023-05-07T11:38:48;16.40;41.18
67354;SHT30;54238;52.278;21.056;2023-05-07T11:41:18;16.01;41.70
67354;SHT30;54238;52.278;21.056;2023-05-07T11:43:54;15.70;42.40
67354;SHT30;54238;52.278;21.056;2023-05-07T11:46:28;15.50;43.01
67354;SHT30;54238;52.278;21.056;2023-05-07T11:49:00;15.41;43.36
67354;SHT30;54238;52.278;21.056;2023-05-07T11:51:27;15.35;43.34
67354;SHT30;54238;52.278;21.056;2023-05-07T11:53:57;15.39;43.88
67354;SHT30;54238;52.278;21.056;2023-05-07T11:56:29;15.53;44.06
67354;SHT30;54238;52.278;21.056;2023-05-07T11:58:56;15.91;43.79
67354;SHT30;54238;52.278;21.056;2023-05-07T12:01:24;16.42;43.53
67354;SHT30;54238;52.278;21.056;2023-05-07T12:03:55;16.83;42.22
67354;SHT30;54238;52.278;21.056;2023-05-07T12:06:28;17.11;41.43
67354;SHT30;54238;52.278;21.056;2023-05-07T12:08:57;17.21;41.10
67354;SHT30;54238;52.278;21.056;2023-05-07T12:11:30;17.30;41.33
67354;SHT30;54238;52.278;21.056;2023-05-07T12:14:01;17.40;40.84
67354;SHT30;54238;52.278;21.056;2023-05-07T12:16:31;17.47;40.54
67354;SHT30;54238;52.278;21.056;2023-05-07T12:19:01;17.48;40.26
67354;SHT30;54238;52.278;21.056;2023-05-07T12:21:33;17.44;40.41
67354;SHT30;54238;52.278;21.056;2023-05-07T12:24:01;17.48;40.29
67354;SHT30;54238;52.278;21.056;2023-05-07T12:26:31;17.57;40.36
67354;SHT30;54238;52.278;21.056;2023-05-07T12:28:58;17.54;40.00
67354;SHT30;54238;52.278;21.056;2023-05-07T12:31:28;17.40;40.04
67354;SHT30;54238;52.278;21.056;2023-05-07T12:33:55;17.23;40.44
67354;SHT30;54238;52.278;21.056;2023-05-07T12:36:22;17.14;40.34
67354;SHT30;54238;52.278;21.056;2023-05-07T12:38:52;17.14;40.47
67354;SHT30;54238;52.278;21.056;2023-05-07T12:41:21;17.17;39.59
67354;SHT30;54238;52.278;21.056;2023-05-07T12:43:55;17.20;40.13
67354;SHT30;54238;52.278;21.056;2023-05-07T12:46:25;17.39;39.67
67354;SHT30;54238;52.278;21.056;2023-05-07T12:48:59;17.65;39.01
67354;SHT30;54238;52.278;21.056;2023-05-07T12:51:31;17.97;38.96
67354;SHT30;54238;52.278;21.056;2023-05-07T12:54:00;18.41;38.08
67354;SHT30;54238;52.278;21.056;2023-05-07T12:56:35;18.69;37.51
67354;SHT30;54238;52.278;21.056;2023-05-07T12:59:03;18.91;36.72
67354;SHT30;54238;52.278;21.056;2023-05-07T13:01:35;18.85;36.77
67354;SHT30;54238;52.278;21.056;2023-05-07T13:04:02;18.67;37.02
67354;SHT30;54238;52.278;21.056;2023-05-07T13:06:32;18.57;37.40
67354;SHT30;54238;52.278;21.056;2023-05-07T13:09:02;18.48;36.84
67354;SHT30;54238;52.278;21.056;2023-05-07T13:18:47;19.83;35.63
67354;SHT30;54238;52.278;21.056;2023-05-07T13:21:14;20.50;35.02
67354;SHT30;54238;52.278;21.056;2023-05-07T13:23:46;21.16;34.08
67354;SHT30;54238;52.278;21.056;2023-05-07T13:26:15;21.63;32.26
67354;SHT30;54238;52.278;21.056;2023-05-07T13:28:51;22.04;31.59
67354;SHT30;54238;52.278;21.056;2023-05-07T13:31:24;22.26;31.45
67354;SHT30;54238;52.278;21.056;2023-05-07T13:33:51;21.94;31.58
67354;SHT30;54238;52.278;21.056;2023-05-07T13:36:22;21.57;31.55
67354;SHT30;54238;52.278;21.056;2023-05-07T13:38:50;21.65;31.49
67354;SHT30;54238;52.278;21.056;2023-05-07T13:41:22;21.76;31.48
67354;SHT30;54238;52.278;21.056;2023-05-07T13:43:49;21.75;30.81
67354;SHT30;54238;52.278;21.056;2023-05-07T13:46:21;21.56;31.29
67354;SHT30;54238;52.278;21.056;2023-05-07T13:48:48;21.62;30.97
67354;SHT30;54238;52.278;21.056;2023-05-07T13:51:22;21.64;31.12
67354;SHT30;54238;52.278;21.056;2023-05-07T13:53:49;22.02;31.29
67354;SHT30;54238;52.278;21.056;2023-05-07T13:56:16;22.43;30.72
67354;SHT30;54238;52.278;21.056;2023-05-07T13:58:49;22.65;30.11
67354;SHT30;54238;52.278;21.056;2023-05-07T14:01:19;22.97;29.34
67354;SHT30;54238;52.278;21.056;2023-05-07T14:03:50;23.22;29.49
67354;SHT30;54238;52.278;21.056;2023-05-07T14:06:22;23.54;29.45
67354;SHT30;54238;52.278;21.056;2023-05-07T14:08:54;23.54;28.75
67354;SHT30;54238;52.278;21.056;2023-05-07T14:11:24;23.50;28.25
67354;SHT30;54238;52.278;21.056;2023-05-07T14:13:51;23.33;28.80
67354;SHT30;54238;52.278;21.056;2023-05-07T14:16:21;23.67;28.84
67354;SHT30;54238;52.278;21.056;2023-05-07T14:18:53;24.02;28.50
67354;SHT30;54238;52.278;21.056;2023-05-07T14:21:20;24.16;28.00
67354;SHT30;54238;52.278;21.056;2023-05-07T14:23:47;24.25;27.32
67354;SHT30;54238;52.278;21.056;2023-05-07T14:26:14;24.22;27.06
67354;SHT30;54238;52.278;21.056;2023-05-07T14:28:44;24.27;27.14
67354;SHT30;54238;52.278;21.056;2023-05-07T14:31:16;24.53;27.22
67354;SHT30;54238;52.278;21.056;2023-05-07T14:33:47;24.62;26.62
67354;SHT30;54238;52.278;21.056;2023-05-07T14:36:21;24.65;26.47
67354;SHT30;54238;52.278;21.056;2023-05-07T14:38:49;24.58;26.39
67354;SHT30;54238;52.278;21.056;2023-05-07T14:41:19;24.57;26.55
67354;SHT30;54238;52.278;21.056;2023-05-07T14:43:50;24.44;26.79
67354;SHT30;54238;52.278;21.056;2023-05-07T14:46:17;24.11;27.08
67354;SHT30;54238;52.278;21.056;2023-05-07T14:48:46;24.00;27.19
67354;SHT30;54238;52.278;21.056;2023-05-07T14:54:57;24.25;27.45
67354;SHT30;54238;52.278;21.056;2023-05-07T14:57:27;24.34;27.54
67354;SHT30;54238;52.278;21.056;2023-05-07T14:59:56;24.47;27.45
67354;SHT30;54238;52.278;21.056;2023-05-07T15:02:31;24.49;27.39
67354;SHT30;54238;52.278;21.056;2023-05-07T15:05:01;24.45;27.71
67354;SHT30;54238;52.278;21.056;2023-05-07T15:07:31;24.40;27.24
67354;SHT30;54238;52.278;21.056;2023-05-07T15:10:01;24.17;26.88
67354;SHT30;54238;52.278;21.056;2023-05-07T15:12:29;23.89;27.21
67354;SHT30;54238;52.278;21.056;2023-05-07T15:14:56;23.80;27.15
67354;SHT30;54238;52.278;21.056;2023-05-07T15:17:23;23.70;27.01
67354;SHT30;54238;52.278;21.056;2023-05-07T15:19:53;23.57;27.30
67354;SHT30;54238;52.278;21.056;2023-05-07T15:22:25;23.33;27.28
67354;SHT30;54238;52.278;21.056;2023-05-07T15:24:52;23.20;27.53
67354;SHT30;54238;52.278;21.056;2023-05-07T15:27:28;23.14;27.41
67354;SHT30;54238;52.278;21.056;2023-05-07T15:30:00;22.94;27.45
67354;SHT30;54238;52.278;21.056;2023-05-07T15:32:32;22.81;27.61
67354;SHT30;54238;52.278;21.056;2023-05-07T15:35:05;22.72;28.14
67354;SHT30;54238;52.278;21.056;2023-05-07T15:37:34;22.67;28.06
67354;SHT30;54238;52.278;21.056;2023-05-07T15:40:01;22.62;28.15
67354;SHT30;54238;52.278;21.056;2023-05-07T15:42:34;22.44;27.99
67354;SHT30;54238;52.278;21.056;2023-05-07T15:45:06;22.18;28.33
67354;SHT30;54238;52.278;21.056;2023-05-07T15:47:39;22.02;28.74
67354;SHT30;54238;52.278;21.056;2023-05-07T15:50:12;21.96;28.99
67354;SHT30;54238;52.278;21.056;2023-05-07T15:52:44;21.90;29.41
67354;SHT30;54238;52.278;21.056;2023-05-07T15:55:17;21.91;29.25
67354;SHT30;54238;52.278;21.056;2023-05-07T15:57:44;21.88;29.16
67354;SHT30;54238;52.278;21.056;2023-05-07T16:00:11;21.73;29.40
67354;SHT30;54238;52.278;21.056;2023-05-07T16:02:42;21.65;29.26
67354;SHT30;54238;52.278;21.056;2023-05-07T16:05:13;21.54;29.70
67354;SHT30;54238;52.278;21.056;2023-05-07T16:07:41;21.44;29.76
67354;SHT30;54238;52.278;21.056;2023-05-07T16:10:13;21.32;29.61
67354;SHT30;54238;52.278;21.056;2023-05-07T16:12:43;21.16;29.54
67354;SHT30;54238;52.278;21.056;2023-05-07T16:15:12;21.06;29.80
67354;SHT30;54238;52.278;21.056;2023-05-07T16:17:44;21.03;30.12
67354;SHT30;54238;52.278;21.056;2023-05-07T16:20:16;20.99;30.09
67354;SHT30;54238;52.278;21.056;2023-05-07T16:22:45;20.81;30.39
67354;SHT30;54238;52.278;21.056;2023-05-07T16:25:12;20.64;30.56
67354;SHT30;54238;52.278;21.056;2023-05-07T16:27:40;20.51;30.87
67354;SHT30;54238;52.278;21.056;2023-05-07T16:30:11;20.37;30.90
67354;SHT30;54238;52.278;21.056;2023-05-07T16:32:45;20.29;31.05
67354;SHT30;54238;52.278;21.056;2023-05-07T16:35:12;20.18;31.35
67354;SHT30;54238;52.278;21.056;2023-05-07T16:37:42;20.03;31.73
67354;SHT30;54238;52.278;21.056;2023-05-07T16:40:11;19.96;31.96
67354;SHT30;54238;52.278;21.056;2023-05-07T16:42:43;19.89;32.09
67354;SHT30;54238;52.278;21.056;2023-05-07T16:45:13;19.73;32.26